Time;durP1;ratioP1;P1;durP2;ratioP2;P2;SDS_P1;SDS_P2;PMS_P1;PMS_P2;Temp;Humidity;BMP_temperature;BMP_pressure;BME280_temperature;BME280_humidity;BME280_pressure;Samples;Min_cycle;Max_cycle;Signal;HPM_P1;HPM_P2
2021/09/20 00:00:17;;;;;;;9.10;7.70;;;13.00;99.90;;;;;;4407453;32;20185;-67
2021/09/20 00:02:50;;;;;;;12.40;9.83;;;12.90;99.90;;;;;;4404556;32;20220;-67
2021/09/20 00:05:20;;;;;;;9.77;8.87;;;12.90;99.90;;;;;;4403952;32;20176;-67
2021/09/20 00:07:49;;;;;;;8.87;8.07;;;12.90;99.90;;;;;;4406026;32;20473;-66
2021/09/20 00:10:21;;;;;;;9.33;8.53;;;12.80;99.90;;;;;;4401100;32;20569;-67
2021/09/20 00:12:51;;;;;;;8.63;7.93;;;12.80;99.90;;;;;;4402890;32;20179;-68
2021/09/20 00:15:18;;;;;;;8.03;7.30;;;12.90;99.90;;;;;;4405417;32;20170;-67
2021/09/20 00:17:51;;;;;;;9.33;8.30;;;13.00;99.90;;;;;;4401289;32;20191;-67
2021/09/20 00:20:19;;;;;;;8.67;7.97;;;13.10;99.90;;;;;;4402340;32;20186;-68
2021/09/20 00:22:46;;;;;;;9.30;8.40;;;13.10;99.90;;;;;;4408483;32;20177;-69
2021/09/20 00:25:13;;;;;;;10.23;8.37;;;13.10;99.90;;;;;;4407262;32;20156;-67
2021/09/20 00:27:42;;;;;;;9.03;8.23;;;13.00;99.90;;;;;;4405597;32;20156;-67
2021/09/20 00:30:12;;;;;;;9.50;8.53;;;12.90;99.90;;;;;;4401221;32;20579;-67
2021/09/20 00:32:41;;;;;;;10.33;9.43;;;12.80;99.90;;;;;;4408815;32;20148;-67
2021/09/20 00:35:16;;;;;;;10.03;9.03;;;12.80;99.90;;;;;;4403177;32;20153;-67
2021/09/20 00:37:43;;;;;;;9.20;8.40;;;12.80;99.90;;;;;;4404409;32;20193;-67
2021/09/20 00:40:13;;;;;;;8.87;8.27;;;12.80;99.90;;;;;;4407922;32;20579;-67
2021/09/20 00:42:40;;;;;;;9.93;9.03;;;12.80;99.90;;;;;;4406848;32;20510;-67
2021/09/20 00:45:09;;;;;;;8.60;7.30;;;12.80;99.90;;;;;;4402942;32;20502;-68
2021/09/20 00:47:36;;;;;;;8.17;7.40;;;12.80;99.90;;;;;;4406177;32;20277;-67
2021/09/20 00:50:03;;;;;;;8.83;8.03;;;12.90;99.90;;;;;;4401803;32;20177;-67
2021/09/20 00:52:32;;;;;;;9.40;8.50;;;12.80;99.90;;;;;;4344106;32;2071554;-68
2021/09/20 00:55:02;;;;;;;8.17;7.43;;;12.80;99.90;;;;;;4401696;32;20513;-67
2021/09/20 00:57:37;;;;;;;8.83;7.93;;;12.80;99.90;;;;;;4407341;32;20519;-68
2021/09/20 01:00:09;;;;;;;9.70;8.77;;;12.70;99.90;;;;;;4405281;32;20158;-69
2021/09/20 01:02:39;;;;;;;8.83;7.93;;;12.60;99.90;;;;;;4406642;32;20217;-70
2021/09/20 01:05:07;;;;;;;9.37;8.50;;;12.60;99.90;;;;;;4400944;32;20206;-68
2021/09/20 01:07:44;;;;;;;8.47;7.77;;;12.60;99.90;;;;;;4397319;32;20152;-69
2021/09/20 01:10:15;;;;;;;9.00;8.27;;;12.70;99.90;;;;;;4401012;32;21045;-67
2021/09/20 01:12:42;;;;;;;9.40;8.60;;;12.80;99.90;;;;;;4397326;32;20490;-69
2021/09/20 01:15:09;;;;;;;9.30;8.30;;;12.80;99.90;;;;;;4400241;32;20181;-67
2021/09/20 01:17:38;;;;;;;10.03;9.10;;;12.90;99.90;;;;;;4402412;32;20199;-68
2021/09/20 01:20:07;;;;;;;9.93;8.37;;;12.80;99.90;;;;;;4405285;32;20184;-68
2021/09/20 01:22:37;;;;;;;9.37;8.40;;;12.80;99.90;;;;;;4403281;32;20218;-69
2021/09/20 01:25:09;;;;;;;8.83;8.10;;;12.70;99.90;;;;;;4405434;32;20202;-69
2021/09/20 01:27:37;;;;;;;9.07;8.23;;;12.60;99.90;;;;;;4401404;32;20211;-70
2021/09/20 01:30:05;;;;;;;9.47;8.57;;;12.50;99.90;;;;;;4406667;32;20160;-68
2021/09/20 01:32:37;;;;;;;9.10;8.10;;;12.40;99.90;;;;;;4404803;32;20538;-70
2021/09/20 01:35:07;;;;;;;9.70;8.80;;;12.40;99.90;;;;;;4396076;32;20177;-67
2021/09/20 01:37:34;;;;;;;9.00;8.20;;;12.30;99.90;;;;;;4403335;32;20155;-70
2021/09/20 01:40:04;;;;;;;8.93;8.03;;;12.20;99.90;;;;;;4407653;32;20147;-67
2021/09/20 01:42:38;;;;;;;10.30;8.90;;;12.20;99.90;;;;;;4406205;32;20163;-69
2021/09/20 01:45:12;;;;;;;12.37;9.33;;;12.10;99.90;;;;;;4405228;32;20156;-67
2021/09/20 01:47:39;;;;;;;10.27;9.37;;;12.10;99.90;;;;;;4404297;32;20152;-69
2021/09/20 01:50:08;;;;;;;8.97;8.23;;;12.00;99.90;;;;;;4406478;32;20633;-67
2021/09/20 01:52:35;;;;;;;9.27;8.37;;;12.00;99.90;;;;;;4396460;32;20167;-68
2021/09/20 01:55:03;;;;;;;9.87;8.97;;;11.90;99.90;;;;;;4395339;32;20179;-67
2021/09/20 01:57:32;;;;;;;10.90;9.57;;;11.90;99.90;;;;;;4401471;32;20156;-68
2021/09/20 02:00:00;;;;;;;9.63;8.67;;;11.90;99.90;;;;;;4391324;32;20175;-69
2021/09/20 02:02:27;;;;;;;9.80;8.77;;;11.90;99.90;;;;;;4390024;32;20197;-67
2021/09/20 02:05:00;;;;;;;10.90;9.80;;;11.80;99.90;;;;;;4390493;32;20191;-67
2021/09/20 02:07:28;;;;;;;10.67;9.20;;;11.70;99.90;;;;;;4395127;32;20618;-67
2021/09/20 02:09:57;;;;;;;10.57;9.57;;;11.70;99.90;;;;;;4392820;32;20186;-69
2021/09/20 02:12:24;;;;;;;10.03;9.13;;;11.70;99.90;;;;;;4397699;32;20591;-70
2021/09/20 02:14:56;;;;;;;11.40;10.27;;;11.70;99.90;;;;;;4390736;32;20539;-69
2021/09/20 02:17:34;;;;;;;9.60;8.07;;;11.70;99.90;;;;;;4390340;32;20182;-67
2021/09/20 02:20:03;;;;;;;10.83;9.83;;;11.70;99.90;;;;;;4390872;32;20437;-68
2021/09/20 02:22:30;;;;;;;10.97;9.87;;;11.60;99.90;;;;;;4370843;32;20510;-69
2021/09/20 02:25:00;;;;;;;11.27;9.53;;;11.60;99.90;;;;;;4385753;32;20179;-67
2021/09/20 02:27:26;;;;;;;10.20;9.30;;;11.60;99.90;;;;;;4397579;32;20192;-68
2021/09/20 02:29:54;;;;;;;10.40;9.50;;;11.60;99.90;;;;;;4398063;32;20194;-67
2021/09/20 02:32:21;;;;;;;11.43;10.23;;;11.60;99.90;;;;;;4390851;32;20170;-67
2021/09/20 02:34:49;;;;;;;11.07;10.07;;;11.50;99.90;;;;;;4389357;32;20611;-67
2021/09/20 02:37:16;;;;;;;10.40;9.50;;;11.40;99.90;;;;;;4367290;32;20543;-70
2021/09/20 02:39:45;;;;;;;9.93;8.93;;;11.40;99.90;;;;;;4399553;32;20182;-67
2021/09/20 02:42:12;;;;;;;10.13;9.20;;;11.40;99.90;;;;;;4353656;32;20481;-67
2021/09/20 02:44:50;;;;;;;10.33;9.23;;;11.30;99.90;;;;;;4389928;32;20153;-70
2021/09/20 02:47:17;;;;;;;9.47;8.53;;;11.30;99.90;;;;;;4404907;32;20164;-67
2021/09/20 02:49:46;;;;;;;12.03;9.27;;;11.30;99.90;;;;;;4399961;32;20159;-67
2021/09/20 02:52:17;;;;;;;12.73;10.67;;;11.20;99.90;;;;;;4360830;32;20186;-67
2021/09/20 02:54:44;;;;;;;11.00;9.93;;;11.20;99.90;;;;;;4401366;32;20159;-68
2021/09/20 02:57:14;;;;;;;10.90;9.80;;;11.20;99.90;;;;;;4392989;32;20595;-67
2021/09/20 02:59:44;;;;;;;14.53;10.07;;;11.10;99.90;;;;;;4406847;32;20156;-66
2021/09/20 03:02:14;;;;;;;11.13;10.13;;;11.10;99.90;;;;;;4404843;32;20584;-68
2021/09/20 03:04:42;;;;;;;10.80;9.80;;;11.10;99.90;;;;;;4406632;32;20178;-67
2021/09/20 03:07:09;;;;;;;14.13;12.63;;;11.10;99.90;;;;;;4405420;32;20190;-71
2021/09/20 03:09:38;;;;;;;11.37;10.27;;;11.10;99.90;;;;;;4406476;32;20214;-70
2021/09/20 03:12:16;;;;;;;11.60;10.17;;;11.10;99.90;;;;;;4405833;32;20600;-67
2021/09/20 03:14:43;;;;;;;11.93;10.73;;;11.10;99.90;;;;;;4406615;32;20645;-67
2021/09/20 03:17:10;;;;;;;12.20;11.10;;;11.10;99.90;;;;;;4406535;32;20190;-67
2021/09/20 03:19:39;;;;;;;11.10;9.80;;;11.10;99.90;;;;;;4395965;32;20611;-66
2021/09/20 03:22:10;;;;;;;13.40;11.97;;;11.00;99.90;;;;;;4406858;32;20151;-70
2021/09/20 03:24:43;;;;;;;11.43;10.27;;;11.00;99.90;;;;;;4400182;32;20235;-68
2021/09/20 03:27:19;;;;;;;12.37;11.20;;;10.90;99.90;;;;;;4399494;32;20641;-66
2021/09/20 03:29:47;;;;;;;11.60;10.40;;;10.90;99.90;;;;;;4405974;32;20212;-66
2021/09/20 03:32:14;;;;;;;11.97;10.80;;;10.80;99.90;;;;;;4392391;32;20223;-66
2021/09/20 03:34:44;;;;;;;12.63;11.43;;;10.70;99.90;;;;;;4400920;32;20568;-68
2021/09/20 03:37:11;;;;;;;12.93;11.73;;;10.70;99.90;;;;;;4403506;32;20164;-66
2021/09/20 03:39:42;;;;;;;12.57;11.37;;;10.70;99.90;;;;;;4405721;32;20215;-66
2021/09/20 03:42:09;;;;;;;13.40;11.70;;;10.70;99.90;;;;;;4401765;32;20181;-66
2021/09/20 03:44:36;;;;;;;12.33;11.13;;;10.60;99.90;;;;;;4407737;32;20195;-68
2021/09/20 03:47:03;;;;;;;14.83;12.20;;;10.60;99.90;;;;;;4398174;32;20198;-67
2021/09/20 03:49:30;;;;;;;12.23;11.03;;;10.60;99.90;;;;;;4407047;32;20151;-66
2021/09/20 03:51:59;;;;;;;11.93;10.93;;;10.60;99.90;;;;;;4398774;32;20171;-68
2021/09/20 03:54:28;;;;;;;16.83;11.73;;;10.70;99.90;;;;;;4392112;32;20321;-70
2021/09/20 03:57:03;;;;;;;11.73;10.60;;;10.70;99.90;;;;;;4389544;32;20162;-68
2021/09/20 03:59:33;;;;;;;10.63;9.63;;;10.80;99.90;;;;;;4391940;32;20163;-66
2021/09/20 04:02:03;;;;;;;13.10;11.77;;;10.80;99.90;;;;;;4393336;32;20476;-66
2021/09/20 04:04:29;;;;;;;12.20;11.07;;;10.90;99.90;;;;;;4393249;32;20185;-68
2021/09/20 04:07:03;;;;;;;13.60;10.83;;;10.90;99.90;;;;;;4391450;32;20222;-66
2021/09/20 04:09:30;;;;;;;12.53;11.37;;;11.00;99.90;;;;;;4393895;32;20218;-66
2021/09/20 04:12:00;;;;;;;13.17;11.53;;;11.00;99.90;;;;;;4391504;32;20156;-68
2021/09/20 04:14:27;;;;;;;13.87;12.57;;;11.10;99.90;;;;;;4392082;32;20175;-66
2021/09/20 04:16:54;;;;;;;13.90;11.33;;;11.10;99.90;;;;;;4392452;32;20155;-69
2021/09/20 04:19:21;;;;;;;13.47;12.27;;;11.10;99.90;;;;;;4379000;32;20152;-66
2021/09/20 04:21:48;;;;;;;14.90;12.73;;;11.10;99.90;;;;;;4378708;32;20584;-65
2021/09/20 04:24:16;;;;;;;13.00;11.73;;;11.10;99.90;;;;;;4393502;32;20171;-66
2021/09/20 04:26:43;;;;;;;12.10;10.93;;;11.10;99.90;;;;;;4391256;32;20163;-70
2021/09/20 04:29:13;;;;;;;12.90;11.60;;;11.20;99.90;;;;;;4384942;32;20160;-66
2021/09/20 04:31:46;;;;;;;12.30;10.40;;;11.10;99.90;;;;;;4391487;32;20152;-68
2021/09/20 04:34:16;;;;;;;14.63;12.73;;;11.10;99.90;;;;;;4390113;32;20217;-66
2021/09/20 04:36:45;;;;;;;13.80;12.40;;;11.10;99.90;;;;;;4393796;32;20171;-67
2021/09/20 04:39:15;;;;;;;11.37;10.17;;;11.10;99.90;;;;;;4387528;32;20172;-66
2021/09/20 04:41:44;;;;;;;12.93;11.63;;;11.00;99.90;;;;;;4391382;32;20163;-69
2021/09/20 04:44:13;;;;;;;12.23;10.73;;;11.00;99.90;;;;;;4392575;32;20186;-65
2021/09/20 04:46:42;;;;;;;11.90;10.70;;;10.90;99.90;;;;;;4392443;32;20480;-69
2021/09/20 04:49:12;;;;;;;13.17;11.47;;;10.80;99.90;;;;;;4392699;32;20156;-65
2021/09/20 04:51:41;;;;;;;14.27;11.13;;;10.80;99.90;;;;;;4392823;32;20215;-65
2021/09/20 04:54:14;;;;;;;13.27;11.87;;;10.70;99.90;;;;;;4406102;32;20175;-65
2021/09/20 04:56:43;;;;;;;12.57;11.37;;;10.70;99.90;;;;;;4406087;32;20617;-68
2021/09/20 04:59:10;;;;;;;13.03;11.63;;;10.60;99.90;;;;;;4407736;32;20605;-66
2021/09/20 05:01:53;;;;;;;12.20;10.93;;;10.60;99.90;;;;;;4376519;32;20203;-66
2021/09/20 05:04:20;;;;;;;11.87;10.67;;;10.50;99.90;;;;;;4381923;32;20175;-67
2021/09/20 05:06:47;;;;;;;13.77;11.20;;;10.50;99.90;;;;;;4402059;32;20211;-67
2021/09/20 05:09:14;;;;;;;13.53;11.67;;;10.50;99.90;;;;;;4404947;32;20182;-66
2021/09/20 05:11:45;;;;;;;13.53;12.13;;;10.50;99.90;;;;;;4404485;32;20163;-66
2021/09/20 05:14:13;;;;;;;14.57;12.33;;;10.50;99.90;;;;;;4360905;32;20176;-65
2021/09/20 05:16:41;;;;;;;14.23;12.83;;;10.40;99.90;;;;;;4404315;32;20194;-65
2021/09/20 05:19:08;;;;;;;14.50;12.67;;;10.40;99.90;;;;;;4390291;32;20157;-65
2021/09/20 05:21:36;;;;;;;15.93;13.50;;;10.40;99.90;;;;;;4349046;32;20180;-65
2021/09/20 05:24:06;;;;;;;16.33;12.37;;;10.40;99.90;;;;;;4365875;32;20185;-65
2021/09/20 05:26:40;;;;;;;13.90;12.47;;;10.30;99.90;;;;;;4403323;32;20202;-65
2021/09/20 05:29:07;;;;;;;14.77;12.50;;;10.30;99.90;;;;;;4404776;32;20260;-66
2021/09/20 05:31:34;;;;;;;14.33;12.90;;;10.30;99.90;;;;;;4404864;32;20182;-65
2021/09/20 05:34:02;;;;;;;14.67;12.60;;;10.30;99.90;;;;;;4399887;32;20159;-65
2021/09/20 05:36:50;;;;;;;15.67;13.03;;;10.30;99.90;;;;;;4397594;32;20156;-64
2021/09/20 05:39:17;;;;;;;13.13;11.83;;;10.30;99.90;;;;;;4402455;32;20225;-64
2021/09/20 05:41:43;;;;;;;14.00;12.60;;;10.40;99.90;;;;;;4402958;32;20572;-64
2021/09/20 05:44:10;;;;;;;14.73;13.23;;;10.40;99.90;;;;;;4401897;32;20198;-65
2021/09/20 05:46:37;;;;;;;14.83;13.30;;;10.50;99.90;;;;;;4398459;32;20225;-65
2021/09/20 05:49:20;;;;;;;14.47;12.87;;;10.50;99.90;;;;;;4404238;32;20218;-64
2021/09/20 05:51:47;;;;;;;14.77;12.13;;;10.50;99.90;;;;;;4400549;32;20198;-65
2021/09/20 05:54:17;;;;;;;15.67;12.83;;;10.50;99.90;;;;;;4400576;32;20625;-64
2021/09/20 05:56:46;;;;;;;13.57;12.13;;;10.60;99.90;;;;;;4402356;32;20164;-65
2021/09/20 05:59:12;;;;;;;13.33;11.93;;;10.60;99.90;;;;;;4400074;32;20178;-65
2021/09/20 06:01:42;;;;;;;14.50;13.00;;;10.60;99.90;;;;;;4406092;32;20175;-64
2021/09/20 06:04:09;;;;;;;15.37;11.77;;;10.60;99.90;;;;;;4402497;32;20223;-64
2021/09/20 06:06:43;;;;;;;15.07;13.47;;;10.70;99.90;;;;;;4403498;32;20153;-64
2021/09/20 06:09:13;;;;;;;14.47;12.93;;;10.70;99.90;;;;;;4402424;32;20178;-65
2021/09/20 06:11:44;;;;;;;14.87;13.37;;;10.70;99.90;;;;;;4403030;32;20483;-65
2021/09/20 06:14:11;;;;;;;14.77;11.90;;;10.70;99.90;;;;;;4403428;32;20613;-63
2021/09/20 06:16:37;;;;;;;14.63;12.57;;;10.70;99.90;;;;;;4404329;32;20242;-65
2021/09/20 06:19:07;;;;;;;13.80;12.47;;;10.80;99.90;;;;;;4401596;32;20162;-64
2021/09/20 06:21:34;;;;;;;14.27;12.83;;;10.80;99.90;;;;;;4398082;32;20286;-64
2021/09/20 06:24:03;;;;;;;14.73;13.13;;;10.80;99.90;;;;;;4398860;32;20297;-64
2021/09/20 06:26:30;;;;;;;15.30;13.80;;;10.80;99.90;;;;;;4401714;32;20621;-65
2021/09/20 06:28:56;;;;;;;17.00;15.10;;;10.90;99.90;;;;;;4404640;32;20159;-65
2021/09/20 06:31:23;;;;;;;15.03;13.50;;;11.00;99.90;;;;;;4396267;32;20167;-64
2021/09/20 06:33:50;;;;;;;15.23;13.67;;;11.00;99.90;;;;;;4402605;32;20174;-63
2021/09/20 06:36:17;;;;;;;18.67;14.40;;;11.10;99.90;;;;;;4406450;32;20197;-64
2021/09/20 06:38:46;;;;;;;15.20;13.73;;;11.10;99.90;;;;;;4402487;32;20203;-64
2021/09/20 06:41:14;;;;;;;15.40;13.33;;;11.00;99.90;;;;;;4401963;32;20175;-64
2021/09/20 06:43:41;;;;;;;15.17;13.70;;;11.10;99.90;;;;;;4404127;32;20172;-64
2021/09/20 06:46:08;;;;;;;14.60;12.73;;;11.10;99.90;;;;;;4404626;32;20186;-64
2021/09/20 06:48:35;;;;;;;15.43;13.73;;;11.10;99.90;;;;;;4399216;32;20229;-64
2021/09/20 06:51:02;;;;;;;17.30;14.67;;;11.10;99.90;;;;;;4399848;32;20182;-64
2021/09/20 06:53:33;;;;;;;14.70;12.53;;;11.10;99.90;;;;;;4397591;32;20206;-65
2021/09/20 06:56:00;;;;;;;14.27;11.93;;;11.20;99.90;;;;;;4401305;32;20160;-65
2021/09/20 06:58:31;;;;;;;16.73;14.13;;;11.30;99.90;;;;;;4402160;32;20191;-64
2021/09/20 07:01:00;;;;;;;13.70;11.73;;;11.40;99.90;;;;;;4404040;32;20159;-65
2021/09/20 07:03:27;;;;;;;14.97;13.30;;;11.50;99.90;;;;;;4401737;32;20560;-65
2021/09/20 07:05:54;;;;;;;17.27;14.03;;;11.60;99.90;;;;;;4402807;32;20163;-65
2021/09/20 07:08:21;;;;;;;15.20;11.83;;;11.60;99.90;;;;;;4400452;32;20159;-65
2021/09/20 07:10:48;;;;;;;13.40;11.53;;;11.70;99.90;;;;;;4404023;32;20171;-65
2021/09/20 07:13:15;;;;;;;14.43;12.57;;;11.80;99.90;;;;;;4402792;32;20611;-64
2021/09/20 07:15:44;;;;;;;15.37;13.27;;;11.90;99.90;;;;;;4401222;32;20187;-64
2021/09/20 07:18:11;;;;;;;17.37;13.67;;;12.00;99.90;;;;;;4365841;32;20174;-65
2021/09/20 07:20:38;;;;;;;14.90;12.77;;;12.20;99.90;;;;;;4401348;32;20599;-64
2021/09/20 07:23:05;;;;;;;13.53;12.13;;;12.30;99.90;;;;;;4375341;32;20164;-64
2021/09/20 07:25:32;;;;;;;14.47;12.07;;;12.30;99.90;;;;;;4407559;32;20223;-64
2021/09/20 07:27:59;;;;;;;12.50;11.23;;;12.50;99.90;;;;;;4403183;32;20595;-66
2021/09/20 07:30:26;;;;;;;14.17;12.63;;;12.60;99.90;;;;;;4406988;32;20163;-65
2021/09/20 07:32:56;;;;;;;14.93;13.33;;;12.70;99.90;;;;;;4379013;32;20184;-65
2021/09/20 07:35:23;;;;;;;15.07;12.37;;;12.90;99.90;;;;;;4405524;32;20223;-65
2021/09/20 07:37:57;;;;;;;13.27;11.87;;;13.00;99.90;;;;;;4405235;32;20160;-65
2021/09/20 07:40:27;;;;;;;15.37;11.73;;;13.10;99.90;;;;;;4384477;32;20176;-65
2021/09/20 07:42:55;;;;;;;12.97;11.70;;;13.30;99.90;;;;;;4392827;32;20209;-65
2021/09/20 07:45:22;;;;;;;14.23;12.83;;;13.30;99.90;;;;;;4402861;32;20164;-65
2021/09/20 07:48:39;;;;;;;13.07;11.67;;;13.40;99.90;;;;;;4401572;32;20509;-65
2021/09/20 07:51:11;;;;;;;12.53;11.23;;;13.60;99.90;;;;;;4374981;32;20160;-65
2021/09/20 07:53:43;;;;;;;14.07;12.67;;;13.70;99.90;;;;;;4374497;32;20211;-65
2021/09/20 07:56:19;;;;;;;15.33;12.70;;;13.90;99.90;;;;;;4374337;32;20196;-65
2021/09/20 07:58:46;;;;;;;13.50;12.10;;;14.00;99.90;;;;;;4373720;32;20189;-65
2021/09/20 08:01:13;;;;;;;11.83;10.53;;;14.20;99.90;;;;;;4374113;32;20164;-65
2021/09/20 08:03:40;;;;;;;14.67;10.97;;;14.30;99.90;;;;;;4374594;32;20164;-65
2021/09/20 08:06:08;;;;;;;13.80;11.50;;;14.60;99.90;;;;;;4376154;32;20182;-65
2021/09/20 08:08:35;;;;;;;13.47;12.17;;;14.80;99.90;;;;;;4374807;32;20589;-65
2021/09/20 08:11:02;;;;;;;13.07;11.77;;;15.00;99.90;;;;;;4374972;32;20178;-64
2021/09/20 08:13:30;;;;;;;12.40;11.20;;;15.30;99.90;;;;;;4376595;32;20191;-65
2021/09/20 08:15:56;;;;;;;12.43;10.77;;;15.50;99.90;;;;;;4374192;32;20166;-64
2021/09/20 08:18:23;;;;;;;10.77;9.87;;;15.70;99.90;;;;;;4375265;32;20588;-64
2021/09/20 08:20:50;;;;;;;12.53;11.30;;;16.00;99.90;;;;;;4376876;32;20160;-64
2021/09/20 08:23:19;;;;;;;13.07;11.77;;;16.20;99.90;;;;;;4374643;32;20668;-64
2021/09/20 08:25:45;;;;;;;13.93;11.90;;;16.40;99.90;;;;;;4401549;32;20190;-63
2021/09/20 08:28:12;;;;;;;13.00;11.80;;;16.50;99.90;;;;;;4406974;32;20167;-64
2021/09/20 08:30:40;;;;;;;12.20;10.93;;;16.60;99.90;;;;;;4375288;32;20520;-64
2021/09/20 08:33:07;;;;;;;11.80;10.70;;;16.90;99.90;;;;;;4341601;32;20160;-64
2021/09/20 08:35:34;;;;;;;13.97;11.23;;;17.20;99.20;;;;;;4407178;32;20171;-63
2021/09/20 08:38:01;;;;;;;13.53;12.17;;;16.90;98.90;;;;;;4408429;32;20173;-64
2021/09/20 08:40:30;;;;;;;12.27;11.17;;;17.10;99.40;;;;;;4406076;32;20207;-63
2021/09/20 08:42:58;;;;;;;12.40;11.10;;;17.10;98.90;;;;;;4407408;32;20180;-65
2021/09/20 08:45:26;;;;;;;12.00;10.83;;;16.90;98.90;;;;;;4402409;32;20234;-67
2021/09/20 08:47:55;;;;;;;13.50;12.23;;;16.50;99.10;;;;;;4390695;32;20583;-64
2021/09/20 08:50:25;;;;;;;13.47;12.07;;;16.50;99.60;;;;;;4402099;32;20606;-63
2021/09/20 08:52:54;;;;;;;13.43;12.07;;;16.60;99.90;;;;;;4406756;32;20160;-64
2021/09/20 08:55:24;;;;;;;13.10;11.73;;;16.70;99.40;;;;;;4406473;32;20156;-64
2021/09/20 08:57:53;;;;;;;13.47;11.37;;;16.70;99.10;;;;;;4406379;32;20174;-65
2021/09/20 09:00:20;;;;;;;13.00;11.67;;;16.60;99.40;;;;;;4406069;32;20156;-65
2021/09/20 09:02:47;;;;;;;11.37;10.37;;;16.70;99.30;;;;;;4406493;32;20274;-63
2021/09/20 09:05:20;;;;;;;11.80;10.60;;;16.60;99.30;;;;;;4406566;32;20156;-64
2021/09/20 09:07:49;;;;;;;11.23;10.23;;;16.50;99.10;;;;;;4406297;32;20182;-64
2021/09/20 09:10:19;;;;;;;12.17;11.07;;;16.50;99.00;;;;;;4406051;32;20290;-64
2021/09/20 09:12:46;;;;;;;11.90;10.80;;;16.60;98.30;;;;;;4405382;32;20179;-64
2021/09/20 09:15:19;;;;;;;10.67;9.67;;;16.60;97.90;;;;;;4404772;32;20201;-64
2021/09/20 09:17:52;;;;;;;11.33;9.43;;;16.70;98.20;;;;;;4402805;32;20167;-63
2021/09/20 09:20:22;;;;;;;10.17;9.37;;;16.80;98.70;;;;;;4406420;32;20205;-63
2021/09/20 09:22:51;;;;;;;9.37;8.57;;;17.00;97.60;;;;;;4391566;32;20204;-63
2021/09/20 09:25:22;;;;;;;9.70;8.80;;;17.10;97.70;;;;;;4403413;32;20160;-64
2021/09/20 09:27:52;;;;;;;10.83;9.97;;;17.30;98.30;;;;;;4404418;32;20156;-63
2021/09/20 09:30:23;;;;;;;9.70;8.73;;;17.40;96.60;;;;;;4402731;32;20194;-63
2021/09/20 09:33:05;;;;;;;12.50;9.97;;;17.40;96.60;;;;;;4405309;32;20172;-64
2021/09/20 09:35:33;;;;;;;10.93;8.97;;;17.20;95.50;;;;;;4405369;32;20164;-64
2021/09/20 09:38:04;;;;;;;8.87;8.00;;;17.10;96.70;;;;;;4405053;32;20175;-64
2021/09/20 09:40:45;;;;;;;9.40;8.43;;;17.20;96.90;;;;;;4405150;32;20197;-64
2021/09/20 09:43:12;;;;;;;10.10;9.20;;;17.30;96.20;;;;;;4369706;32;20174;-63
2021/09/20 09:45:41;;;;;;;9.60;8.60;;;17.40;96.90;;;;;;4405325;32;20202;-65
2021/09/20 09:48:11;;;;;;;9.67;8.77;;;17.50;96.50;;;;;;4406259;32;20163;-63
2021/09/20 09:50:45;;;;;;;8.90;8.00;;;17.40;95.60;;;;;;4407479;32;20151;-63
2021/09/20 09:53:27;;;;;;;8.97;8.07;;;17.40;95.90;;;;;;4405828;32;20238;-63
2021/09/20 09:55:56;;;;;;;9.00;8.20;;;17.50;95.80;;;;;;4406278;32;20216;-63
2021/09/20 09:58:24;;;;;;;9.53;8.53;;;17.50;95.20;;;;;;4395590;32;20466;-64
2021/09/20 10:01:19;;;;;;;8.70;7.90;;;17.40;95.10;;;;;;4392391;32;20148;-64
2021/09/20 10:04:06;;;;;;;8.30;7.60;;;17.60;95.70;;;;;;4396973;32;20179;-63
2021/09/20 10:06:57;;;;;;;9.73;8.83;;;17.70;95.30;;;;;;4391713;32;20174;-63
2021/09/20 10:09:31;;;;;;;13.73;7.40;;;17.60;94.60;;;;;;4401911;32;20198;-64
2021/09/20 10:12:00;;;;;;;16.43;9.00;;;17.60;95.30;;;;;;4400148;32;20684;-64
2021/09/20 10:14:28;;;;;;;9.03;8.20;;;17.60;94.30;;;;;;4400795;32;20156;-64
2021/09/20 10:17:03;;;;;;;9.53;8.57;;;17.40;94.30;;;;;;4391212;32;20160;-63
2021/09/20 10:19:33;;;;;;;8.73;7.93;;;17.40;94.70;;;;;;4390886;32;20495;-64
2021/09/20 10:22:03;;;;;;;9.77;9.03;;;17.50;95.20;;;;;;4396447;32;20488;-64
2021/09/20 10:24:30;;;;;;;13.57;10.27;;;17.80;94.60;;;;;;4390723;32;20156;-64
2021/09/20 10:26:58;;;;;;;9.57;8.77;;;17.90;94.10;;;;;;4385300;32;20207;-64
2021/09/20 10:29:26;;;;;;;9.37;8.50;;;17.90;94.10;;;;;;4382807;32;20152;-63
2021/09/20 10:32:00;;;;;;;8.50;7.70;;;18.10;94.50;;;;;;4382489;32;20199;-64
2021/09/20 10:34:28;;;;;;;9.03;8.20;;;18.20;94.00;;;;;;4386133;32;20190;-64
2021/09/20 10:37:02;;;;;;;8.63;7.73;;;18.40;94.00;;;;;;4389604;32;20260;-63
2021/09/20 10:43:51;;;;;;;9.57;8.67;;;18.40;93.30;;;;;;4353141;33;20662;-64
2021/09/20 10:46:23;;;;;;;15.47;8.93;;;18.50;93.20;;;;;;4349743;33;20156;-64
2021/09/20 10:48:54;;;;;;;9.23;7.97;;;18.60;93.30;;;;;;4346381;32;20267;-63
2021/09/20 10:51:54;;;;;;;10.47;9.33;;;18.70;93.60;;;;;;4354157;32;20493;-64
2021/09/20 10:54:23;;;;;;;9.53;8.63;;;18.40;93.50;;;;;;4350308;32;20165;-63
2021/09/20 10:57:06;;;;;;;9.60;8.77;;;18.00;93.70;;;;;;4347761;32;20504;-63
2021/09/20 10:59:49;;;;;;;9.27;7.63;;;17.80;93.20;;;;;;4358201;33;20567;-66
2021/09/20 11:02:27;;;;;;;9.47;8.60;;;17.70;93.70;;;;;;4347901;33;20240;-63
2021/09/20 11:05:14;;;;;;;8.27;7.60;;;17.50;94.00;;;;;;4333079;33;20239;-66
2021/09/20 11:07:46;;;;;;;10.13;8.20;;;17.60;94.10;;;;;;4347594;33;20233;-63
2021/09/20 11:10:17;;;;;;;9.10;8.20;;;17.60;93.20;;;;;;4350773;32;20506;-63
2021/09/20 11:13:06;;;;;;;8.87;8.17;;;17.60;93.40;;;;;;4356437;32;20730;-63
2021/09/20 11:15:46;;;;;;;9.27;8.33;;;17.50;94.00;;;;;;4363878;32;20469;-63
2021/09/20 11:18:42;;;;;;;13.00;8.13;;;17.60;94.00;;;;;;4322953;33;20215;-64
2021/09/20 11:21:10;;;;;;;9.47;8.67;;;17.60;93.30;;;;;;4325689;32;20193;-64
2021/09/20 11:23:39;;;;;;;9.97;8.10;;;17.70;93.40;;;;;;4327404;32;20218;-63
2021/09/20 11:26:13;;;;;;;12.70;9.10;;;18.00;94.20;;;;;;4329591;32;20188;-63
2021/09/20 11:28:47;;;;;;;10.10;9.23;;;18.60;93.00;;;;;;4325470;33;20586;-63
2021/09/20 11:31:17;;;;;;;9.93;9.03;;;19.40;92.30;;;;;;4322461;33;20898;-63
2021/09/20 11:33:47;;;;;;;9.43;8.50;;;19.70;91.60;;;;;;4324681;33;20224;-65
2021/09/20 11:36:26;;;;;;;10.77;9.83;;;19.70;91.20;;;;;;4329084;33;20172;-64
2021/09/20 11:39:15;;;;;;;8.90;8.10;;;19.40;91.80;;;;;;4328130;33;20150;-64
2021/09/20 11:41:46;;;;;;;10.50;8.53;;;19.40;91.80;;;;;;4326298;33;20562;-63
2021/09/20 11:44:18;;;;;;;9.57;8.77;;;19.20;91.60;;;;;;4330096;33;20193;-64
2021/09/20 11:46:54;;;;;;;9.90;8.50;;;18.70;91.60;;;;;;4329035;33;20171;-65
2021/09/20 11:52:31;;;;;;;10.10;9.20;;;18.90;92.40;;;;;;4390536;32;20696;-64
2021/09/20 11:54:58;;;;;;;11.67;10.23;;;19.50;92.00;;;;;;4402658;32;20528;-64
2021/09/20 11:57:31;;;;;;;10.47;9.47;;;19.70;91.30;;;;;;4402421;32;20174;-64
2021/09/20 12:00:05;;;;;;;10.50;9.63;;;19.90;91.00;;;;;;4406204;32;20184;-64
2021/09/20 12:02:39;;;;;;;9.33;8.53;;;20.20;90.90;;;;;;4398207;32;20258;-66
2021/09/20 12:05:10;;;;;;;10.43;9.40;;;20.10;90.00;;;;;;4394289;32;20203;-65
2021/09/20 12:07:49;;;;;;;10.50;9.47;;;19.70;90.20;;;;;;4395624;32;20727;-64
2021/09/20 12:10:17;;;;;;;8.57;7.77;;;19.30;90.70;;;;;;4397918;32;20193;-66
2021/09/20 12:12:50;;;;;;;10.70;9.80;;;19.10;90.80;;;;;;4389963;32;20183;-64
2021/09/20 12:18:01;;;;;;;10.33;9.10;;;18.70;91.40;;;;;;4347330;32;20293;-66
2021/09/20 12:20:32;;;;;;;12.40;8.97;;;18.60;92.00;;;;;;4354487;32;20224;-68
2021/09/20 12:23:03;;;;;;;10.97;9.30;;;18.60;92.30;;;;;;4359126;33;20173;-65
2021/09/20 12:25:37;;;;;;;11.23;10.27;;;18.80;92.50;;;;;;4360118;32;20223;-65
2021/09/20 12:28:05;;;;;;;9.23;8.43;;;18.90;91.50;;;;;;4360055;32;20214;-65
2021/09/20 12:30:37;;;;;;;10.50;9.60;;;18.90;92.00;;;;;;4358473;33;20306;-64
2021/09/20 12:33:10;;;;;;;10.73;9.67;;;19.00;92.20;;;;;;4353608;33;20289;-64
2021/09/20 12:35:39;;;;;;;9.90;9.00;;;18.90;91.30;;;;;;4360285;32;20635;-64
2021/09/20 12:38:33;;;;;;;10.67;9.77;;;18.80;92.10;;;;;;4360921;32;20475;-64
2021/09/20 12:41:09;;;;;;;8.83;8.10;;;18.60;92.10;;;;;;4360174;32;20520;-65
2021/09/20 12:43:40;;;;;;;10.23;9.33;;;18.40;92.20;;;;;;4359396;33;20218;-65
2021/09/20 12:46:15;;;;;;;11.00;10.07;;;18.40;92.60;;;;;;4359789;32;20171;-65
2021/09/20 12:48:46;;;;;;;11.07;9.93;;;18.70;92.40;;;;;;4379436;32;20218;-65
2021/09/20 12:51:17;;;;;;;10.03;9.07;;;18.80;92.00;;;;;;4395202;32;20214;-65
2021/09/20 12:53:48;;;;;;;9.43;8.47;;;19.10;91.70;;;;;;4395259;32;20160;-65
2021/09/20 12:56:18;;;;;;;9.77;8.73;;;19.10;92.00;;;;;;4407738;32;20493;-65
2021/09/20 12:58:51;;;;;;;10.70;9.70;;;19.10;91.40;;;;;;4406927;32;20166;-63
2021/09/20 13:01:30;;;;;;;10.67;9.70;;;18.90;91.50;;;;;;4403482;32;20164;-64